sensor_id;sensor_type;location;lat;lon;timestamp;temperature;humidity
15906;DHT22;8051;50.820;4.884;2023-06-22T00:00:19;20.60;99.90
15906;DHT22;8051;50.820;4.884;2023-06-22T00:02:47;20.50;99.90
15906;DHT22;8051;50.820;4.884;2023-06-22T00:05:15;20.40;99.90
15906;DHT22;8051;50.820;4.884;2023-06-22T00:07:42;20.40;99.90
15906;DHT22;8051;50.820;4.884;2023-06-22T00:10:10;20.30;99.90
15906;DHT22;8051;50.820;4.884;2023-06-22T00:12:38;20.30;99.90
15906;DHT22;8051;50.820;4.884;2023-06-22T00:15:08;20.20;99.90
15906;DHT22;8051;50.820;4.884;2023-06-22T00:17:35;20.10;99.90
15906;DHT22;8051;50.820;4.884;2023-06-22T00:20:03;20.10;99.90
15906;DHT22;8051;50.820;4.884;2023-06-22T00:22:33;20.00;99.90
15906;DHT22;8051;50.820;4.884;2023-06-22T00:25:06;20.00;99.90
15906;DHT22;8051;50.820;4.884;2023-06-22T00:27:33;20.00;99.90
15906;DHT22;8051;50.820;4.884;2023-06-22T00:30:01;20.00;99.90
15906;DHT22;8051;50.820;4.884;2023-06-22T00:32:30;20.10;99.90
15906;DHT22;8051;50.820;4.884;2023-06-22T00:34:58;20.10;99.90
15906;DHT22;8051;50.820;4.884;2023-06-22T00:37:26;20.10;99.90
15906;DHT22;8051;50.820;4.884;2023-06-22T00:39:55;20.20;99.90
15906;DHT22;8051;50.820;4.884;2023-06-22T00:42:23;20.20;99.90
15906;DHT22;8051;50.820;4.884;2023-06-22T00:44:50;20.30;99.90
15906;DHT22;8051;50.820;4.884;2023-06-22T00:47:18;20.20;99.90
15906;DHT22;8051;50.820;4.884;2023-06-22T00:49:48;20.30;99.90
15906;DHT22;8051;50.820;4.884;2023-06-22T00:52:17;20.30;99.90
15906;DHT22;8051;50.820;4.884;2023-06-22T00:54:46;20.30;99.90
15906;DHT22;8051;50.820;4.884;2023-06-22T00:57:15;20.30;99.90
15906;DHT22;8051;50.820;4.884;2023-06-22T00:59:43;20.30;99.90
15906;DHT22;8051;50.820;4.884;2023-06-22T01:02:10;20.30;99.90
15906;DHT22;8051;50.820;4.884;2023-06-22T01:04:39;20.20;99.90
15906;DHT22;8051;50.820;4.884;2023-06-22T01:07:13;20.20;99.90
15906;DHT22;8051;50.820;4.884;2023-06-22T01:09:49;20.20;99.90
15906;DHT22;8051;50.820;4.884;2023-06-22T01:12:18;20.30;99.90
15906;DHT22;8051;50.820;4.884;2023-06-22T01:14:50;20.30;99.90
15906;DHT22;8051;50.820;4.884;2023-06-22T01:17:21;20.20;99.90
15906;DHT22;8051;50.820;4.884;2023-06-22T01:19:51;20.20;99.90
15906;DHT22;8051;50.820;4.884;2023-06-22T01:22:24;20.10;99.90
15906;DHT22;8051;50.820;4.884;2023-06-22T01:25:00;20.10;99.90
15906;DHT22;8051;50.820;4.884;2023-06-22T01:27:46;20.00;99.90
15906;DHT22;8051;50.820;4.884;2023-06-22T01:30:17;20.00;99.90
15906;DHT22;8051;50.820;4.884;2023-06-22T01:32:47;19.90;99.90
15906;DHT22;8051;50.820;4.884;2023-06-22T01:35:15;19.90;99.90
15906;DHT22;8051;50.820;4.884;2023-06-22T01:37:44;19.90;99.90
15906;DHT22;8051;50.820;4.884;2023-06-22T01:40:13;19.90;99.90
15906;DHT22;8051;50.820;4.884;2023-06-22T01:42:43;20.00;99.90
15906;DHT22;8051;50.820;4.884;2023-06-22T01:45:11;19.90;99.90
15906;DHT22;8051;50.820;4.884;2023-06-22T01:47:41;19.90;99.90
15906;DHT22;8051;50.820;4.884;2023-06-22T01:50:09;19.90;99.90
15906;DHT22;8051;50.820;4.884;2023-06-22T01:52:36;19.90;99.90
15906;DHT22;8051;50.820;4.884;2023-06-22T01:55:04;19.80;99.90
15906;DHT22;8051;50.820;4.884;2023-06-22T01:57:33;19.80;99.90
15906;DHT22;8051;50.820;4.884;2023-06-22T02:00:03;19.70;99.90
15906;DHT22;8051;50.820;4.884;2023-06-22T02:02:36;19.70;99.90
15906;DHT22;8051;50.820;4.884;2023-06-22T02:05:08;19.70;99.90
15906;DHT22;8051;50.820;4.884;2023-06-22T02:07:41;19.60;99.90
15906;DHT22;8051;50.820;4.884;2023-06-22T02:10:13;19.60;99.90
15906;DHT22;8051;50.820;4.884;2023-06-22T02:12:42;19.60;99.90
15906;DHT22;8051;50.820;4.884;2023-06-22T02:15:11;19.60;99.90
15906;DHT22;8051;50.820;4.884;2023-06-22T02:17:40;19.70;99.90
15906;DHT22;8051;50.820;4.884;2023-06-22T02:20:14;19.70;99.90
15906;DHT22;8051;50.820;4.884;2023-06-22T02:22:41;19.70;99.90
15906;DHT22;8051;50.820;4.884;2023-06-22T02:25:09;19.70;99.90
15906;DHT22;8051;50.820;4.884;2023-06-22T02:27:36;19.80;99.90
15906;DHT22;8051;50.820;4.884;2023-06-22T02:30:07;19.80;99.90
15906;DHT22;8051;50.820;4.884;2023-06-22T02:32:35;19.80;99.90
15906;DHT22;8051;50.820;4.884;2023-06-22T02:35:08;19.80;99.90
15906;DHT22;8051;50.820;4.884;2023-06-22T02:37:37;19.80;99.90
15906;DHT22;8051;50.820;4.884;2023-06-22T02:40:08;19.70;99.90
15906;DHT22;8051;50.820;4.884;2023-06-22T02:42:36;19.70;99.90
15906;DHT22;8051;50.820;4.884;2023-06-22T02:45:04;19.70;99.90
15906;DHT22;8051;50.820;4.884;2023-06-22T02:47:32;19.70;99.90
15906;DHT22;8051;50.820;4.884;2023-06-22T02:49:59;19.60;99.90
15906;DHT22;8051;50.820;4.884;2023-06-22T02:52:27;19.60;99.90
15906;DHT22;8051;50.820;4.884;2023-06-22T02:54:55;19.50;99.90
15906;DHT22;8051;50.820;4.884;2023-06-22T02:57:23;19.50;99.90
15906;DHT22;8051;50.820;4.884;2023-06-22T02:59:50;19.40;99.90
15906;DHT22;8051;50.820;4.884;2023-06-22T03:02:18;19.40;99.90
15906;DHT22;8051;50.820;4.884;2023-06-22T03:04:47;19.30;99.90
15906;DHT22;8051;50.820;4.884;2023-06-22T03:07:15;19.30;99.90
15906;DHT22;8051;50.820;4.884;2023-06-22T03:09:43;19.20;99.90
15906;DHT22;8051;50.820;4.884;2023-06-22T03:12:12;19.20;99.90
15906;DHT22;8051;50.820;4.884;2023-06-22T03:14:39;19.10;99.90
15906;DHT22;8051;50.820;4.884;2023-06-22T03:17:06;19.10;99.90
15906;DHT22;8051;50.820;4.884;2023-06-22T03:19:34;19.10;99.90
15906;DHT22;8051;50.820;4.884;2023-06-22T03:22:02;19.10;99.90
15906;DHT22;8051;50.820;4.884;2023-06-22T03:24:29;19.10;99.90
15906;DHT22;8051;50.820;4.884;2023-06-22T03:26:56;19.20;99.90
15906;DHT22;8051;50.820;4.884;2023-06-22T03:29:25;19.20;99.90
15906;DHT22;8051;50.820;4.884;2023-06-22T03:31:53;19.20;99.90
15906;DHT22;8051;50.820;4.884;2023-06-22T03:34:20;19.30;99.90
15906;DHT22;8051;50.820;4.884;2023-06-22T03:36:48;19.30;99.90
15906;DHT22;8051;50.820;4.884;2023-06-22T03:39:15;19.30;99.90
15906;DHT22;8051;50.820;4.884;2023-06-22T03:41:43;19.40;99.90
15906;DHT22;8051;50.820;4.884;2023-06-22T03:44:10;19.30;99.90
15906;DHT22;8051;50.820;4.884;2023-06-22T03:46:39;19.40;99.90
15906;DHT22;8051;50.820;4.884;2023-06-22T03:49:07;19.40;99.90
15906;DHT22;8051;50.820;4.884;2023-06-22T03:51:34;19.40;99.90
15906;DHT22;8051;50.820;4.884;2023-06-22T03:54:02;19.40;99.90
15906;DHT22;8051;50.820;4.884;2023-06-22T03:56:29;19.40;99.90
15906;DHT22;8051;50.820;4.884;2023-06-22T03:58:57;19.40;99.90
15906;DHT22;8051;50.820;4.884;2023-06-22T04:01:24;19.40;99.90
15906;DHT22;8051;50.820;4.884;2023-06-22T04:03:53;19.30;99.90
15906;DHT22;8051;50.820;4.884;2023-06-22T04:06:21;19.30;99.90
15906;DHT22;8051;50.820;4.884;2023-06-22T04:08:48;19.30;99.90
15906;DHT22;8051;50.820;4.884;2023-06-22T04:11:16;19.30;99.90
15906;DHT22;8051;50.820;4.884;2023-06-22T04:13:44;19.40;99.90
15906;DHT22;8051;50.820;4.884;2023-06-22T04:16:12;19.40;99.90
15906;DHT22;8051;50.820;4.884;2023-06-22T04:18:39;19.40;99.90
15906;DHT22;8051;50.820;4.884;2023-06-22T04:21:09;19.50;99.90
15906;DHT22;8051;50.820;4.884;2023-06-22T04:23:36;19.50;99.90
15906;DHT22;8051;50.820;4.884;2023-06-22T04:26:04;19.50;99.90
15906;DHT22;8051;50.820;4.884;2023-06-22T04:28:31;19.50;99.90
15906;DHT22;8051;50.820;4.884;2023-06-22T04:31:01;19.40;99.90
15906;DHT22;8051;50.820;4.884;2023-06-22T04:33:29;19.40;99.90
15906;DHT22;8051;50.820;4.884;2023-06-22T04:35:57;19.40;99.90
15906;DHT22;8051;50.820;4.884;2023-06-22T04:38:29;19.40;99.90
15906;DHT22;8051;50.820;4.884;2023-06-22T04:40:59;19.40;99.90
15906;DHT22;8051;50.820;4.884;2023-06-22T04:43:28;19.40;99.90
15906;DHT22;8051;50.820;4.884;2023-06-22T04:45:56;19.40;99.90
15906;DHT22;8051;50.820;4.884;2023-06-22T04:48:29;19.40;99.90
15906;DHT22;8051;50.820;4.884;2023-06-22T04:50:59;19.40;99.90
15906;DHT22;8051;50.820;4.884;2023-06-22T04:53:30;19.50;99.90
15906;DHT22;8051;50.820;4.884;2023-06-22T04:55:57;19.60;99.90
15906;DHT22;8051;50.820;4.884;2023-06-22T04:58:25;19.60;99.90
15906;DHT22;8051;50.820;4.884;2023-06-22T05:00:54;19.60;99.90
15906;DHT22;8051;50.820;4.884;2023-06-22T05:03:24;19.70;99.90
15906;DHT22;8051;50.820;4.884;2023-06-22T05:05:52;19.70;99.90
15906;DHT22;8051;50.820;4.884;2023-06-22T05:08:19;19.80;99.90
15906;DHT22;8051;50.820;4.884;2023-06-22T05:10:48;19.80;99.90
15906;DHT22;8051;50.820;4.884;2023-06-22T05:13:15;19.80;99.90
15906;DHT22;8051;50.820;4.884;2023-06-22T05:15:43;19.80;99.90
15906;DHT22;8051;50.820;4.884;2023-06-22T05:18:13;19.80;99.90
15906;DHT22;8051;50.820;4.884;2023-06-22T05:20:41;19.80;99.90
15906;DHT22;8051;50.820;4.884;2023-06-22T05:23:08;19.90;99.90
15906;DHT22;8051;50.820;4.884;2023-06-22T05:25:35;20.00;99.90
15906;DHT22;8051;50.820;4.884;2023-06-22T05:28:04;20.10;99.90
15906;DHT22;8051;50.820;4.884;2023-06-22T05:30:37;20.20;99.90
15906;DHT22;8051;50.820;4.884;2023-06-22T05:33:05;20.20;99.90
15906;DHT22;8051;50.820;4.884;2023-06-22T05:35:32;20.20;99.90
15906;DHT22;8051;50.820;4.884;2023-06-22T05:38:00;20.30;99.90
15906;DHT22;8051;50.820;4.884;2023-06-22T05:40:27;20.30;99.90
15906;DHT22;8051;50.820;4.884;2023-06-22T05:42:55;20.30;99.90
15906;DHT22;8051;50.820;4.884;2023-06-22T05:45:24;20.30;99.90
15906;DHT22;8051;50.820;4.884;2023-06-22T05:47:51;20.20;99.90
15906;DHT22;8051;50.820;4.884;2023-06-22T05:50:18;20.10;99.90
15906;DHT22;8051;50.820;4.884;2023-06-22T05:52:46;20.00;99.90
15906;DHT22;8051;50.820;4.884;2023-06-22T05:55:14;20.00;99.90
15906;DHT22;8051;50.820;4.884;2023-06-22T05:57:41;19.90;99.90
15906;DHT22;8051;50.820;4.884;2023-06-22T06:00:09;19.80;99.90
15906;DHT22;8051;50.820;4.884;2023-06-22T06:02:40;19.80;99.90
15906;DHT22;8051;50.820;4.884;2023-06-22T06:05:10;19.80;99.90
15906;DHT22;8051;50.820;4.884;2023-06-22T06:07:39;19.80;99.90
15906;DHT22;8051;50.820;4.884;2023-06-22T06:10:08;19.90;99.90
15906;DHT22;8051;50.820;4.884;2023-06-22T06:12:35;20.00;99.90
15906;DHT22;8051;50.820;4.884;2023-06-22T06:15:03;20.10;99.90
15906;DHT22;8051;50.820;4.884;2023-06-22T06:17:31;20.20;99.90
15906;DHT22;8051;50.820;4.884;2023-06-22T06:20:01;20.30;99.90
15906;DHT22;8051;50.820;4.884;2023-06-22T06:22:30;20.20;99.90
15906;DHT22;8051;50.820;4.884;2023-06-22T06:24:58;20.20;99.90
15906;DHT22;8051;50.820;4.884;2023-06-22T06:27:25;20.20;99.90
15906;DHT22;8051;50.820;4.884;2023-06-22T06:29:56;20.30;99.90
15906;DHT22;8051;50.820;4.884;2023-06-22T06:32:23;20.20;99.90
15906;DHT22;8051;50.820;4.884;2023-06-22T06:34:51;20.20;99.90
15906;DHT22;8051;50.820;4.884;2023-06-22T06:37:20;20.30;99.90
15906;DHT22;8051;50.820;4.884;2023-06-22T06:39:48;20.30;99.90
15906;DHT22;8051;50.820;4.884;2023-06-22T06:42:16;20.50;99.90
15906;DHT22;8051;50.820;4.884;2023-06-22T06:44:45;20.50;99.90
15906;DHT22;8051;50.820;4.884;2023-06-22T06:47:12;20.60;99.90
15906;DHT22;8051;50.820;4.884;2023-06-22T06:49:40;20.70;99.90
15906;DHT22;8051;50.820;4.884;2023-06-22T06:52:07;20.90;99.90
15906;DHT22;8051;50.820;4.884;2023-06-22T06:54:36;21.10;99.90
15906;DHT22;8051;50.820;4.884;2023-06-22T06:57:04;21.10;99.90
15906;DHT22;8051;50.820;4.884;2023-06-22T06:59:32;21.10;99.90
15906;DHT22;8051;50.820;4.884;2023-06-22T07:01:59;21.20;99.90
15906;DHT22;8051;50.820;4.884;2023-06-22T07:04:27;21.00;99.90
15906;DHT22;8051;50.820;4.884;2023-06-22T07:06:54;20.80;99.90
15906;DHT22;8051;50.820;4.884;2023-06-22T07:09:21;20.70;99.90
15906;DHT22;8051;50.820;4.884;2023-06-22T07:11:50;20.70;99.90
15906;DHT22;8051;50.820;4.884;2023-06-22T07:14:18;20.90;99.90
15906;DHT22;8051;50.820;4.884;2023-06-22T07:16:45;20.90;99.90
15906;DHT22;8051;50.820;4.884;2023-06-22T07:19:13;20.90;99.90
15906;DHT22;8051;50.820;4.884;2023-06-22T07:21:40;21.00;99.90
15906;DHT22;8051;50.820;4.884;2023-06-22T07:24:08;20.90;99.90
15906;DHT22;8051;50.820;4.884;2023-06-22T07:26:35;20.90;99.90
15906;DHT22;8051;50.820;4.884;2023-06-22T07:29:04;21.00;99.90
15906;DHT22;8051;50.820;4.884;2023-06-22T07:31:32;21.10;99.90
15906;DHT22;8051;50.820;4.884;2023-06-22T07:33:59;21.20;99.90
15906;DHT22;8051;50.820;4.884;2023-06-22T07:36:26;21.30;99.90
15906;DHT22;8051;50.820;4.884;2023-06-22T07:38:56;21.30;99.90
15906;DHT22;8051;50.820;4.884;2023-06-22T07:41:23;21.30;99.90
15906;DHT22;8051;50.820;4.884;2023-06-22T07:43:51;21.30;99.90
15906;DHT22;8051;50.820;4.884;2023-06-22T07:46:20;21.40;99.90
15906;DHT22;8051;50.820;4.884;2023-06-22T07:48:47;21.30;99.90
15906;DHT22;8051;50.820;4.884;2023-06-22T07:51:14;21.40;99.90
15906;DHT22;8051;50.820;4.884;2023-06-22T07:53:43;21.40;99.90
15906;DHT22;8051;50.820;4.884;2023-06-22T07:56:10;21.30;99.90
15906;DHT22;8051;50.820;4.884;2023-06-22T07:58:38;21.30;99.90
15906;DHT22;8051;50.820;4.884;2023-06-22T08:01:05;21.30;99.90
15906;DHT22;8051;50.820;4.884;2023-06-22T08:03:34;21.20;99.90
15906;DHT22;8051;50.820;4.884;2023-06-22T08:06:02;21.20;99.90
15906;DHT22;8051;50.820;4.884;2023-06-22T08:08:30;21.10;99.90
15906;DHT22;8051;50.820;4.884;2023-06-22T08:10:57;21.20;99.90
15906;DHT22;8051;50.820;4.884;2023-06-22T08:13:25;21.20;99.90
15906;DHT22;8051;50.820;4.884;2023-06-22T08:15:52;21.30;99.90
15906;DHT22;8051;50.820;4.884;2023-06-22T08:18:20;21.30;99.90
15906;DHT22;8051;50.820;4.884;2023-06-22T08:20:49;21.40;99.90
15906;DHT22;8051;50.820;4.884;2023-06-22T08:23:17;21.60;99.90
15906;DHT22;8051;50.820;4.884;2023-06-22T08:25:45;21.60;99.90
15906;DHT22;8051;50.820;4.884;2023-06-22T08:28:14;21.60;99.90
15906;DHT22;8051;50.820;4.884;2023-06-22T08:30:41;21.50;99.90
15906;DHT22;8051;50.820;4.884;2023-06-22T08:33:08;21.50;99.90
15906;DHT22;8051;50.820;4.884;2023-06-22T08:35:36;21.60;99.90
15906;DHT22;8051;50.820;4.884;2023-06-22T08:38:04;21.60;99.90
15906;DHT22;8051;50.820;4.884;2023-06-22T08:40:33;21.70;99.90
15906;DHT22;8051;50.820;4.884;2023-06-22T08:43:01;21.70;99.90
15906;DHT22;8051;50.820;4.884;2023-06-22T08:45:28;21.70;99.90
15906;DHT22;8051;50.820;4.884;2023-06-22T08:47:56;21.70;99.90
15906;DHT22;8051;50.820;4.884;2023-06-22T08:50:23;21.70;99.90
15906;DHT22;8051;50.820;4.884;2023-06-22T08:52:51;21.70;99.90
15906;DHT22;8051;50.820;4.884;2023-06-22T08:55:20;21.70;99.90
15906;DHT22;8051;50.820;4.884;2023-06-22T08:57:47;21.70;99.90
15906;DHT22;8051;50.820;4.884;2023-06-22T09:00:16;21.70;99.90
15906;DHT22;8051;50.820;4.884;2023-06-22T09:02:46;21.60;99.90
15906;DHT22;8051;50.820;4.884;2023-06-22T09:05:13;21.70;99.90
15906;DHT22;8051;50.820;4.884;2023-06-22T09:07:40;21.60;99.90
15906;DHT22;8051;50.820;4.884;2023-06-22T09:10:08;21.80;99.90
15906;DHT22;8051;50.820;4.884;2023-06-22T09:12:37;21.90;99.90
15906;DHT22;8051;50.820;4.884;2023-06-22T09:15:05;21.70;99.90
15906;DHT22;8051;50.820;4.884;2023-06-22T09:17:35;21.60;99.90
15906;DHT22;8051;50.820;4.884;2023-06-22T09:20:05;21.50;99.90
15906;DHT22;8051;50.820;4.884;2023-06-22T09:22:33;21.10;99.90
15906;DHT22;8051;50.820;4.884;2023-06-22T09:25:01;20.80;99.90
15906;DHT22;8051;50.820;4.884;2023-06-22T09:27:29;20.40;99.90
15906;DHT22;8051;50.820;4.884;2023-06-22T09:29:58;20.20;99.90
15906;DHT22;8051;50.820;4.884;2023-06-22T09:32:25;20.00;99.90
15906;DHT22;8051;50.820;4.884;2023-06-22T09:34:52;19.80;99.90
15906;DHT22;8051;50.820;4.884;2023-06-22T09:37:19;19.70;99.90
15906;DHT22;8051;50.820;4.884;2023-06-22T09:39:46;19.60;99.90
15906;DHT22;8051;50.820;4.884;2023-06-22T09:42:13;19.50;99.90
15906;DHT22;8051;50.820;4.884;2023-06-22T09:44:40;19.40;99.90
15906;DHT22;8051;50.820;4.884;2023-06-22T09:47:09;19.40;99.90
15906;DHT22;8051;50.820;4.884;2023-06-22T09:49:36;19.40;99.90
15906;DHT22;8051;50.820;4.884;2023-06-22T09:52:03;19.40;99.90
15906;DHT22;8051;50.820;4.884;2023-06-22T09:54:30;19.40;99.90
15906;DHT22;8051;50.820;4.884;2023-06-22T09:56:57;19.60;99.90
15906;DHT22;8051;50.820;4.884;2023-06-22T09:59:25;19.50;99.90
15906;DHT22;8051;50.820;4.884;2023-06-22T10:01:52;19.30;99.90
15906;DHT22;8051;50.820;4.884;2023-06-22T10:04:21;19.30;99.90
15906;DHT22;8051;50.820;4.884;2023-06-22T10:06:49;19.30;99.90
15906;DHT22;8051;50.820;4.884;2023-06-22T10:09:16;19.20;99.90
15906;DHT22;8051;50.820;4.884;2023-06-22T10:11:43;19.10;99.90
15906;DHT22;8051;50.820;4.884;2023-06-22T10:14:11;18.90;99.90
15906;DHT22;8051;50.820;4.884;2023-06-22T10:16:38;18.90;99.90
15906;DHT22;8051;50.820;4.884;2023-06-22T10:19:07;18.80;99.90
15906;DHT22;8051;50.820;4.884;2023-06-22T10:21:35;18.70;99.90
15906;DHT22;8051;50.820;4.884;2023-06-22T10:24:03;18.80;99.90
15906;DHT22;8051;50.820;4.884;2023-06-22T10:26:33;18.90;99.90
15906;DHT22;8051;50.820;4.884;2023-06-22T10:29:00;18.80;99.90
15906;DHT22;8051;50.820;4.884;2023-06-22T10:31:28;18.70;99.90
15906;DHT22;8051;50.820;4.884;2023-06-22T10:33:56;18.70;99.90
15906;DHT22;8051;50.820;4.884;2023-06-22T10:36:23;18.80;99.90
15906;DHT22;8051;50.820;4.884;2023-06-22T10:38:52;18.80;99.90
15906;DHT22;8051;50.820;4.884;2023-06-22T10:41:21;18.80;99.90
15906;DHT22;8051;50.820;4.884;2023-06-22T10:43:48;18.80;99.90
15906;DHT22;8051;50.820;4.884;2023-06-22T10:46:15;18.80;99.90
15906;DHT22;8051;50.820;4.884;2023-06-22T10:48:42;18.60;99.90
15906;DHT22;8051;50.820;4.884;2023-06-22T10:51:09;18.40;99.90
15906;DHT22;8051;50.820;4.884;2023-06-22T10:53:36;18.30;99.90
15906;DHT22;8051;50.820;4.884;2023-06-22T10:56:07;18.20;99.90
15906;DHT22;8051;50.820;4.884;2023-06-22T10:58:37;18.20;99.90
15906;DHT22;8051;50.820;4.884;2023-06-22T11:01:04;18.20;99.90
15906;DHT22;8051;50.820;4.884;2023-06-22T11:03:31;18.40;99.90
15906;DHT22;8051;50.820;4.884;2023-06-22T11:05:58;18.40;99.90
15906;DHT22;8051;50.820;4.884;2023-06-22T11:08:24;18.30;99.90
15906;DHT22;8051;50.820;4.884;2023-06-22T11:10:51;18.60;99.90
15906;DHT22;8051;50.820;4.884;2023-06-22T11:13:20;18.80;99.90
15906;DHT22;8051;50.820;4.884;2023-06-22T11:15:47;18.90;99.90
15906;DHT22;8051;50.820;4.884;2023-06-22T11:18:14;18.80;99.90
15906;DHT22;8051;50.820;4.884;2023-06-22T11:20:41;18.80;99.90
15906;DHT22;8051;50.820;4.884;2023-06-22T11:23:08;18.90;99.90
15906;DHT22;8051;50.820;4.884;2023-06-22T11:25:37;18.80;99.90
15906;DHT22;8051;50.820;4.884;2023-06-22T11:28:04;18.70;99.90
15906;DHT22;8051;50.820;4.884;2023-06-22T11:30:33;18.80;99.90
15906;DHT22;8051;50.820;4.884;2023-06-22T11:33:00;18.70;99.90
15906;DHT22;8051;50.820;4.884;2023-06-22T11:35:28;18.70;99.90
15906;DHT22;8051;50.820;4.884;2023-06-22T11:37:55;18.70;99.90
15906;DHT22;8051;50.820;4.884;2023-06-22T11:40:24;18.70;99.90
15906;DHT22;8051;50.820;4.884;2023-06-22T11:42:51;18.50;99.90
15906;DHT22;8051;50.820;4.884;2023-06-22T11:45:18;18.30;99.90
15906;DHT22;8051;50.820;4.884;2023-06-22T11:47:47;18.30;99.90
15906;DHT22;8051;50.820;4.884;2023-06-22T11:50:15;18.30;99.90
15906;DHT22;8051;50.820;4.884;2023-06-22T11:52:42;18.30;99.90
15906;DHT22;8051;50.820;4.884;2023-06-22T11:55:09;18.30;99.90
15906;DHT22;8051;50.820;4.884;2023-06-22T11:57:37;18.30;99.90
15906;DHT22;8051;50.820;4.884;2023-06-22T12:00:05;18.30;99.90
15906;DHT22;8051;50.820;4.884;2023-06-22T12:02:43;18.40;99.90
15906;DHT22;8051;50.820;4.884;2023-06-22T12:05:11;18.40;99.90
15906;DHT22;8051;50.820;4.884;2023-06-22T12:07:39;18.40;99.90
15906;DHT22;8051;50.820;4.884;2023-06-22T12:10:07;18.20;99.90
15906;DHT22;8051;50.820;4.884;2023-06-22T12:12:34;18.10;99.90
15906;DHT22;8051;50.820;4.884;2023-06-22T12:15:01;18.20;99.90
15906;DHT22;8051;50.820;4.884;2023-06-22T12:17:29;18.10;99.90
15906;DHT22;8051;50.820;4.884;2023-06-22T12:19:56;18.10;99.90
15906;DHT22;8051;50.820;4.884;2023-06-22T12:22:25;18.10;99.90
15906;DHT22;8051;50.820;4.884;2023-06-22T12:24:52;18.00;99.90
15906;DHT22;8051;50.820;4.884;2023-06-22T12:27:22;18.00;99.90
15906;DHT22;8051;50.820;4.884;2023-06-22T12:29:49;18.00;99.90
15906;DHT22;8051;50.820;4.884;2023-06-22T12:32:17;18.10;99.90
15906;DHT22;8051;50.820;4.884;2023-06-22T12:34:44;18.10;99.90
15906;DHT22;8051;50.820;4.884;2023-06-22T12:37:11;18.00;99.90
15906;DHT22;8051;50.820;4.884;2023-06-22T12:39:40;18.10;99.90
15906;DHT22;8051;50.820;4.884;2023-06-22T12:42:07;18.10;99.90
15906;DHT22;8051;50.820;4.884;2023-06-22T12:44:35;18.10;99.90
15906;DHT22;8051;50.820;4.884;2023-06-22T12:47:02;18.10;99.90
15906;DHT22;8051;50.820;4.884;2023-06-22T12:49:30;18.00;99.90
15906;DHT22;8051;50.820;4.884;2023-06-22T12:51:57;18.00;99.90
15906;DHT22;8051;50.820;4.884;2023-06-22T12:54:24;18.00;99.90
15906;DHT22;8051;50.820;4.884;2023-06-22T12:56:53;18.00;99.90
15906;DHT22;8051;50.820;4.884;2023-06-22T12:59:21;18.10;99.90
15906;DHT22;8051;50.820;4.884;2023-06-22T13:01:48;18.20;99.90
15906;DHT22;8051;50.820;4.884;2023-06-22T13:04:16;18.10;99.90
15906;DHT22;8051;50.820;4.884;2023-06-22T13:06:44;18.00;99.90
15906;DHT22;8051;50.820;4.884;2023-06-22T13:09:14;18.00;99.90
15906;DHT22;8051;50.820;4.884;2023-06-22T13:11:41;18.00;99.90
15906;DHT22;8051;50.820;4.884;2023-06-22T13:14:10;18.00;99.90
15906;DHT22;8051;50.820;4.884;2023-06-22T13:16:37;17.90;99.90
15906;DHT22;8051;50.820;4.884;2023-06-22T13:19:04;17.90;99.90
15906;DHT22;8051;50.820;4.884;2023-06-22T13:21:31;18.00;99.90
15906;DHT22;8051;50.820;4.884;2023-06-22T13:23:59;17.90;99.90
15906;DHT22;8051;50.820;4.884;2023-06-22T13:26:26;17.90;99.90
15906;DHT22;8051;50.820;4.884;2023-06-22T13:28:54;17.90;99.90
15906;DHT22;8051;50.820;4.884;2023-06-22T13:31:23;18.00;99.90
15906;DHT22;8051;50.820;4.884;2023-06-22T13:33:50;18.00;99.90
15906;DHT22;8051;50.820;4.884;2023-06-22T13:36:18;18.00;99.90
15906;DHT22;8051;50.820;4.884;2023-06-22T13:38:45;18.00;99.90
15906;DHT22;8051;50.820;4.884;2023-06-22T13:41:13;17.90;99.90
15906;DHT22;8051;50.820;4.884;2023-06-22T13:43:40;18.00;99.90
15906;DHT22;8051;50.820;4.884;2023-06-22T13:46:07;17.90;99.90
15906;DHT22;8051;50.820;4.884;2023-06-22T13:48:36;17.90;99.90
15906;DHT22;8051;50.820;4.884;2023-06-22T13:51:03;18.00;99.90
15906;DHT22;8051;50.820;4.884;2023-06-22T13:53:30;18.00;99.90
15906;DHT22;8051;50.820;4.884;2023-06-22T13:55:57;18.00;99.90
15906;DHT22;8051;50.820;4.884;2023-06-22T13:58:24;18.00;99.90
15906;DHT22;8051;50.820;4.884;2023-06-22T14:00:51;18.00;99.90
15906;DHT22;8051;50.820;4.884;2023-06-22T14:03:18;18.00;99.90
15906;DHT22;8051;50.820;4.884;2023-06-22T14:05:47;18.00;99.90
15906;DHT22;8051;50.820;4.884;2023-06-22T14:08:15;18.00;99.90
15906;DHT22;8051;50.820;4.884;2023-06-22T14:10:43;18.00;99.90
15906;DHT22;8051;50.820;4.884;2023-06-22T14:13:10;18.00;99.90
15906;DHT22;8051;50.820;4.884;2023-06-22T14:15:37;18.00;99.90
15906;DHT22;8051;50.820;4.884;2023-06-22T14:18:05;18.10;99.90
15906;DHT22;8051;50.820;4.884;2023-06-22T14:20:32;18.10;99.90
15906;DHT22;8051;50.820;4.884;2023-06-22T14:23:01;18.10;99.90
15906;DHT22;8051;50.820;4.884;2023-06-22T14:25:29;18.20;99.90
15906;DHT22;8051;50.820;4.884;2023-06-22T14:27:56;18.20;99.90
15906;DHT22;8051;50.820;4.884;2023-06-22T14:30:24;18.20;99.90
15906;DHT22;8051;50.820;4.884;2023-06-22T14:32:52;18.20;99.90
15906;DHT22;8051;50.820;4.884;2023-06-22T14:35:19;18.10;99.90
15906;DHT22;8051;50.820;4.884;2023-06-22T14:37:47;18.20;99.90
15906;DHT22;8051;50.820;4.884;2023-06-22T14:40:16;18.10;99.90
15906;DHT22;8051;50.820;4.884;2023-06-22T14:42:43;18.10;99.90
15906;DHT22;8051;50.820;4.884;2023-06-22T14:45:12;18.10;99.90
15906;DHT22;8051;50.820;4.884;2023-06-22T14:47:39;18.10;99.90
15906;DHT22;8051;50.820;4.884;2023-06-22T14:50:07;18.10;99.90
15906;DHT22;8051;50.820;4.884;2023-06-22T14:52:36;18.10;99.90
15906;DHT22;8051;50.820;4.884;2023-06-22T14:55:04;18.10;99.90
15906;DHT22;8051;50.820;4.884;2023-06-22T14:57:33;18.10;99.90
15906;DHT22;8051;50.820;4.884;2023-06-22T15:00:01;18.00;99.90
15906;DHT22;8051;50.820;4.884;2023-06-22T15:02:28;17.90;99.90
15906;DHT22;8051;50.820;4.884;2023-06-22T15:04:56;17.90;99.90
15906;DHT22;8051;50.820;4.884;2023-06-22T15:07:23;17.90;99.90
15906;DHT22;8051;50.820;4.884;2023-06-22T15:09:51;18.00;99.90
15906;DHT22;8051;50.820;4.884;2023-06-22T15:12:18;18.00;99.90
15906;DHT22;8051;50.820;4.884;2023-06-22T15:14:47;18.00;99.90
15906;DHT22;8051;50.820;4.884;2023-06-22T15:17:14;18.00;99.90
15906;DHT22;8051;50.820;4.884;2023-06-22T15:19:42;18.00;99.90
15906;DHT22;8051;50.820;4.884;2023-06-22T15:22:09;18.00;99.90
15906;DHT22;8051;50.820;4.884;2023-06-22T15:24:37;18.00;99.90
15906;DHT22;8051;50.820;4.884;2023-06-22T15:27:05;18.00;99.90
15906;DHT22;8051;50.820;4.884;2023-06-22T15:29:32;18.00;99.90
15906;DHT22;8051;50.820;4.884;2023-06-22T15:32:02;18.00;99.90
15906;DHT22;8051;50.820;4.884;2023-06-22T15:34:29;18.00;99.90
15906;DHT22;8051;50.820;4.884;2023-06-22T15:36:56;18.10;99.90
15906;DHT22;8051;50.820;4.884;2023-06-22T15:39:24;18.00;99.90
15906;DHT22;8051;50.820;4.884;2023-06-22T15:41:52;18.00;99.90
15906;DHT22;8051;50.820;4.884;2023-06-22T15:44:21;18.10;99.90
15906;DHT22;8051;50.820;4.884;2023-06-22T15:46:48;18.00;99.90
15906;DHT22;8051;50.820;4.884;2023-06-22T15:49:17;18.10;99.90